Time;durP1;ratioP1;P1;durP2;ratioP2;P2;SDS_P1;SDS_P2;PMS_P1;PMS_P2;Temp;Humidity;BMP_temperature;BMP_pressure;BME280_temperature;BME280_humidity;BME280_pressure;Samples;Min_cycle;Max_cycle;Signal;HPM_P1;HPM_P2
2020/12/01 00:01:12;;;;;;;15.32;11.20;;;9.90;99.90;;;9.22;81.87;102254.44;4217495;28;20149;-72
2020/12/01 00:03:14;;;;;;;15.55;10.32;;;9.90;99.90;;;9.19;82.31;102267.00;4215023;28;20390;-72
2020/12/01 00:05:17;;;;;;;14.50;10.35;;;9.90;99.90;;;9.06;82.74;102263.53;4215168;28;20089;-72
2020/12/01 00:07:18;;;;;;;16.67;10.50;;;9.80;99.90;;;9.08;82.88;102266.91;4212103;28;20473;-72
2020/12/01 00:09:19;;;;;;;13.88;9.90;;;9.70;99.90;;;9.10;83.34;102254.47;4218614;28;20052;-72
2020/12/01 00:11:20;;;;;;;18.50;11.40;;;9.80;99.90;;;9.14;82.82;102263.84;4218845;28;20115;-72
2020/12/01 00:13:21;;;;;;;15.48;11.90;;;9.80;99.90;;;8.93;84.29;102258.28;4217431;28;20032;-72
2020/12/01 00:15:23;;;;;;;16.00;10.57;;;9.70;99.90;;;9.07;83.96;102267.84;4234318;28;20447;-72
2020/12/01 00:17:23;;;;;;;14.40;11.18;;;9.80;99.90;;;9.25;83.87;102266.56;4217615;28;20069;-72
2020/12/01 00:19:24;;;;;;;17.10;12.25;;;9.80;99.90;;;9.02;84.52;102255.00;4218850;28;20024;-72
2020/12/01 00:21:26;;;;;;;16.20;11.43;;;9.80;99.90;;;9.10;85.20;102252.69;4217648;28;20062;-72
2020/12/01 00:23:28;;;;;;;16.58;11.13;;;9.80;99.90;;;9.22;84.71;102264.97;4218732;28;20036;-72
2020/12/01 00:25:29;;;;;;;17.20;11.40;;;9.90;99.90;;;9.14;85.16;102253.31;4217380;28;20016;-72
2020/12/01 00:27:30;;;;;;;18.25;13.13;;;9.80;99.90;;;9.07;86.00;102244.16;4217327;28;20039;-72
2020/12/01 00:29:31;;;;;;;21.23;13.15;;;9.90;99.90;;;8.96;86.52;102239.66;4218666;28;20024;-72
2020/12/01 00:31:41;;;;;;;19.75;12.77;;;9.80;99.90;;;9.00;86.53;102242.91;4217481;28;20031;-72
2020/12/01 00:33:42;;;;;;;16.20;11.50;;;9.70;99.90;;;9.10;85.85;102239.53;4217359;28;20024;-72
2020/12/01 00:35:44;;;;;;;19.55;13.00;;;9.70;99.90;;;9.17;86.04;102232.03;4217414;28;20034;-72
2020/12/01 00:37:45;;;;;;;20.73;13.43;;;9.80;99.90;;;9.12;86.89;102228.88;4208177;28;20055;-72
2020/12/01 00:39:46;;;;;;;17.75;12.15;;;9.80;99.90;;;8.82;88.40;102224.00;4218495;28;20024;-72
2020/12/01 00:41:51;;;;;;;19.55;13.07;;;9.80;99.90;;;8.82;88.72;102216.97;4216945;28;20502;-72
2020/12/01 00:43:52;;;;;;;17.20;12.73;;;9.70;99.90;;;8.77;89.93;102216.47;4217354;28;20031;-72
2020/12/01 00:45:54;;;;;;;17.77;13.27;;;9.70;99.90;;;8.89;88.62;102220.84;4217316;28;20068;-72
2020/12/01 00:47:55;;;;;;;19.50;13.77;;;9.70;99.90;;;8.86;89.58;102204.44;4217251;28;20027;-72
2020/12/01 00:49:56;;;;;;;21.15;14.10;;;9.70;99.90;;;8.97;89.16;102225.56;4218278;28;20612;-72
2020/12/01 00:51:58;;;;;;;23.52;13.68;;;9.70;99.90;;;9.04;89.65;102218.06;4217260;28;20028;-73
2020/12/01 00:53:59;;;;;;;19.92;13.73;;;9.80;99.90;;;9.08;89.70;102225.63;4217039;28;20032;-73
2020/12/01 00:56:00;;;;;;;19.67;13.25;;;9.80;99.90;;;9.01;89.95;102215.66;4218026;28;20530;-72
2020/12/01 00:58:01;;;;;;;21.15;13.88;;;9.80;99.90;;;9.04;90.55;102218.06;4218244;28;20028;-73
2020/12/01 01:00:07;;;;;;;18.42;13.63;;;9.80;99.90;;;9.05;90.74;102217.94;4218342;28;20059;-73
2020/12/01 01:02:09;;;;;;;22.60;14.13;;;9.80;99.90;;;9.14;90.83;102221.72;4217101;28;20082;-73
2020/12/01 01:04:10;;;;;;;22.75;14.45;;;9.80;99.90;;;9.10;91.19;102215.00;4216727;28;20100;-72
2020/12/01 01:06:12;;;;;;;22.85;14.07;;;9.80;99.90;;;8.93;91.70;102205.66;4217809;28;20070;-72
2020/12/01 01:08:13;;;;;;;23.17;13.95;;;9.80;99.90;;;9.07;91.07;102210.81;4218289;28;20030;-73
2020/12/01 01:10:29;;;;;;;25.55;14.48;;;9.80;99.90;;;8.93;92.05;102204.84;4217734;28;20534;-73
2020/12/01 01:12:30;;;;;;;24.13;15.60;;;9.70;99.90;;;8.99;92.15;102197.31;4216702;28;20032;-73
2020/12/01 01:14:31;;;;;;;23.45;14.75;;;9.70;99.90;;;8.84;93.10;102199.28;4216837;28;20054;-73
2020/12/01 01:16:32;;;;;;;27.42;15.77;;;9.70;99.90;;;8.86;92.98;102186.88;4216895;28;20055;-72
2020/12/01 01:18:34;;;;;;;27.00;14.77;;;9.70;99.90;;;8.73;94.40;102190.47;4216971;28;20103;-72
2020/12/01 01:20:35;;;;;;;23.33;14.82;;;9.70;99.90;;;8.94;93.96;102193.34;4213235;28;20036;-72
2020/12/01 01:22:36;;;;;;;24.95;14.52;;;9.70;99.90;;;8.93;93.88;102181.97;4217958;28;20111;-72
2020/12/01 01:24:37;;;;;;;24.17;15.10;;;9.70;99.90;;;8.93;93.53;102189.06;4199955;28;20041;-72
2020/12/01 01:26:38;;;;;;;21.45;13.60;;;9.70;99.90;;;9.03;93.61;102183.00;4216397;28;20148;-72
2020/12/01 01:28:39;;;;;;;22.60;15.13;;;9.70;99.90;;;8.99;93.91;102175.47;4216895;28;20031;-72
2020/12/01 01:30:41;;;;;;;23.92;14.52;;;9.80;99.90;;;9.08;93.41;102182.69;4216754;28;20503;-72
2020/12/01 01:32:42;;;;;;;23.48;14.15;;;9.80;99.90;;;8.94;94.28;102174.94;4218235;28;20046;-72
2020/12/01 01:34:44;;;;;;;22.98;14.13;;;9.80;99.90;;;8.92;94.75;102174.22;4218117;28;20016;-72
2020/12/01 01:36:45;;;;;;;21.08;13.13;;;9.70;99.90;;;8.83;95.06;102165.19;4216807;28;20028;-73
2020/12/01 01:38:46;;;;;;;26.92;14.95;;;9.70;99.90;;;8.92;94.70;102163.69;4216685;28;20069;-72
2020/12/01 01:40:47;;;;;;;22.25;13.48;;;9.70;99.90;;;8.99;94.00;102154.41;4217721;28;20039;-72
2020/12/01 01:42:48;;;;;;;21.17;14.10;;;9.70;99.90;;;8.90;95.01;102138.31;4216843;28;20529;-72
2020/12/01 01:44:49;;;;;;;22.20;13.27;;;9.70;99.90;;;9.00;94.57;102148.16;4217957;28;20102;-72
2020/12/01 01:47:09;;;;;;;21.55;13.70;;;9.80;99.90;;;8.87;95.14;102146.41;4216639;28;20032;-72
2020/12/01 01:49:17;;;;;;;22.40;14.27;;;9.70;99.90;;;8.84;95.00;102136.13;4200535;28;20040;-72
2020/12/01 01:51:20;;;;;;;25.88;14.60;;;9.70;99.90;;;8.89;94.83;102138.44;4217897;28;20028;-72
2020/12/01 01:53:21;;;;;;;22.45;13.55;;;9.70;99.90;;;8.90;95.00;102130.41;4217800;28;20035;-72
2020/12/01 01:55:27;;;;;;;23.08;13.68;;;9.70;99.90;;;8.99;94.62;102135.97;4217963;28;20043;-72
2020/12/01 01:57:30;;;;;;;24.70;13.50;;;9.80;99.90;;;9.06;95.19;102147.72;4216597;28;20062;-72
2020/12/01 01:59:32;;;;;;;25.13;15.02;;;9.70;99.90;;;9.13;94.71;102141.06;4216738;28;20387;-72
2020/12/01 02:01:33;;;;;;;22.85;13.48;;;9.80;99.90;;;9.02;95.13;102133.94;4218153;28;20028;-73
2020/12/01 02:03:55;;;;;;;20.65;14.13;;;9.80;99.90;;;9.20;94.20;102148.38;4209269;28;20503;-73
2020/12/01 02:05:56;;;;;;;22.17;13.20;;;9.80;99.90;;;9.21;94.16;102151.88;4201167;28;20078;-72
2020/12/01 02:07:57;;;;;;;22.25;13.52;;;9.90;99.90;;;9.13;94.79;102155.06;4203122;28;20028;-72
2020/12/01 02:09:58;;;;;;;22.90;14.07;;;9.90;99.90;;;9.26;94.59;102153.19;4216501;28;20040;-72
2020/12/01 02:12:04;;;;;;;22.13;12.45;;;9.90;99.90;;;9.33;93.45;102158.88;4217563;28;20551;-73
2020/12/01 02:14:19;;;;;;;21.27;12.45;;;10.00;99.90;;;9.32;93.46;102167.72;4217684;28;20035;-73
2020/12/01 02:16:20;;;;;;;20.90;12.15;;;10.10;99.90;;;9.31;93.31;102164.25;4217859;28;20446;-73
2020/12/01 02:18:36;;;;;;;19.30;12.23;;;10.00;99.90;;;9.16;93.63;102162.75;4220358;28;20099;-72
2020/12/01 02:20:37;;;;;;;20.20;11.68;;;10.00;99.90;;;9.14;93.92;102161.19;4202730;28;20028;-72
2020/12/01 02:22:43;;;;;;;18.88;12.32;;;10.00;99.90;;;9.30;92.94;102153.81;4219626;28;20529;-73
2020/12/01 02:24:45;;;;;;;18.38;10.77;;;10.00;99.90;;;9.28;92.72;102153.94;4220715;28;20057;-73
2020/12/01 02:26:54;;;;;;;19.65;10.77;;;10.10;99.90;;;9.28;93.23;102153.09;4219173;28;20200;-73
2020/12/01 02:28:57;;;;;;;19.77;11.25;;;10.10;99.90;;;9.38;92.49;102160.19;4220423;28;20028;-73
2020/12/01 02:30:58;;;;;;;21.20;12.02;;;10.10;99.90;;;9.16;93.47;102146.94;4219071;28;20032;-72
2020/12/01 02:32:58;;;;;;;18.27;10.27;;;10.10;99.90;;;9.34;92.37;102155.28;4220513;28;20060;-72
2020/12/01 02:35:00;;;;;;;19.17;10.23;;;10.10;99.90;;;9.33;92.05;102151.81;4220464;28;20498;-72
2020/12/01 02:37:03;;;;;;;15.30;10.27;;;10.10;99.90;;;9.39;91.72;102150.50;4219303;28;20042;-73
2020/12/01 02:39:06;;;;;;;18.15;10.32;;;10.20;99.90;;;9.30;91.50;102143.28;4219415;28;20024;-72
2020/12/01 02:41:07;;;;;;;17.57;10.40;;;10.10;99.90;;;9.40;91.86;102141.66;4218906;28;20032;-72
2020/12/01 02:43:11;;;;;;;19.15;10.10;;;10.20;99.90;;;9.30;91.40;102133.59;4202281;28;20131;-72
2020/12/01 02:45:12;;;;;;;16.17;10.75;;;10.20;99.90;;;9.28;91.46;102143.41;4219024;28;20058;-72
2020/12/01 02:47:13;;;;;;;17.63;10.52;;;10.10;99.90;;;9.31;91.41;102137.06;4219260;28;20169;-72
2020/12/01 02:49:14;;;;;;;17.02;9.95;;;10.20;99.90;;;9.39;91.03;102132.06;4219322;28;20027;-72
2020/12/01 02:51:16;;;;;;;17.55;10.35;;;10.20;99.90;;;9.36;90.38;102116.50;4220500;28;20075;-73
2020/12/01 02:53:16;;;;;;;17.20;9.13;;;10.20;99.90;;;9.38;90.35;102115.44;4220269;28;20024;-72
2020/12/01 02:55:17;;;;;;;14.02;9.60;;;10.20;99.90;;;9.31;91.31;102102.84;4220514;28;20024;-72
2020/12/01 02:57:19;;;;;;;17.77;10.55;;;10.20;99.90;;;9.27;91.45;102101.38;4218981;28;20060;-73
2020/12/01 02:59:20;;;;;;;17.05;10.25;;;10.20;99.90;;;9.15;91.12;102102.28;4202234;28;20409;-72
2020/12/01 03:01:21;;;;;;;16.77;10.00;;;10.20;99.90;;;9.30;90.56;102098.53;4220224;28;20048;-73
2020/12/01 03:03:22;;;;;;;16.60;10.70;;;10.20;99.90;;;9.36;90.88;102085.75;4216419;28;20028;-72
2020/12/01 03:05:23;;;;;;;16.25;10.07;;;10.20;99.90;;;9.36;90.21;102077.00;4202338;28;20166;-73
2020/12/01 03:07:24;;;;;;;20.58;10.95;;;10.20;99.90;;;9.37;91.21;102091.84;4220323;28;20032;-72
2020/12/01 03:09:26;;;;;;;18.17;11.32;;;10.20;99.90;;;9.28;90.92;102098.66;4218519;28;20074;-73
2020/12/01 03:11:27;;;;;;;18.33;10.05;;;10.20;99.90;;;9.39;90.99;102092.56;4218798;28;20031;-73
2020/12/01 03:13:27;;;;;;;17.88;10.98;;;10.20;99.90;;;9.36;90.63;102096.28;4218951;28;20032;-73
2020/12/01 03:15:28;;;;;;;19.45;11.23;;;10.20;99.90;;;9.49;90.25;102087.47;4218960;28;20039;-72
2020/12/01 03:17:29;;;;;;;18.23;11.20;;;10.20;99.90;;;9.31;90.96;102081.78;4220056;28;20442;-73
2020/12/01 03:19:30;;;;;;;19.73;11.75;;;10.20;99.90;;;9.26;91.24;102081.25;4220144;28;20064;-73
2020/12/01 03:21:31;;;;;;;23.42;12.48;;;10.20;99.90;;;9.30;91.19;102074.81;4218864;28;20047;-72
2020/12/01 03:23:34;;;;;;;24.48;13.40;;;10.20;99.90;;;9.40;91.02;102081.09;4218918;28;20030;-73
2020/12/01 03:25:35;;;;;;;19.73;11.05;;;10.20;99.90;;;9.41;90.66;102066.94;4218244;28;20020;-72
2020/12/01 03:27:36;;;;;;;18.50;10.80;;;10.20;99.90;;;9.30;90.78;102062.50;4219741;28;20066;-72
2020/12/01 03:29:37;;;;;;;19.83;11.30;;;10.20;99.90;;;9.43;90.96;102070.31;4219642;28;20502;-72
2020/12/01 03:31:38;;;;;;;19.95;12.00;;;10.20;99.90;;;9.46;90.32;102054.28;4218507;28;20118;-72
2020/12/01 03:33:39;;;;;;;22.13;11.68;;;10.30;99.90;;;9.51;90.96;102065.31;4219667;28;20026;-72
2020/12/01 03:35:40;;;;;;;17.10;11.95;;;10.30;99.90;;;9.36;91.70;102058.56;4219631;28;20020;-72
2020/12/01 03:37:41;;;;;;;19.35;12.13;;;10.30;99.90;;;9.48;91.17;102048.88;4218442;28;20030;-72
2020/12/01 03:39:42;;;;;;;20.27;12.38;;;10.30;99.90;;;9.50;90.36;102042.53;4211991;28;20111;-73
2020/12/01 03:41:43;;;;;;;20.13;11.40;;;10.30;99.90;;;9.41;90.62;102046.72;4217856;28;20020;-72
2020/12/01 03:43:44;;;;;;;22.67;11.93;;;10.30;99.90;;;9.49;90.31;102048.78;4219504;28;20020;-73
2020/12/01 03:45:45;;;;;;;21.45;11.85;;;10.30;99.90;;;9.45;90.92;102045.53;4201302;28;20055;-72
2020/12/01 03:47:46;;;;;;;21.15;11.90;;;10.30;99.90;;;9.36;91.08;102040.97;4218287;28;20503;-72
2020/12/01 03:49:47;;;;;;;19.58;11.18;;;10.30;99.90;;;9.50;90.97;102054.91;4219253;28;20110;-72
2020/12/01 03:51:49;;;;;;;24.58;12.38;;;10.30;99.90;;;9.45;91.50;102048.19;4201298;28;20143;-72
2020/12/01 03:53:50;;;;;;;23.80;12.65;;;10.30;99.90;;;9.50;91.18;102053.09;4218069;28;20059;-73
2020/12/01 03:55:51;;;;;;;22.40;12.48;;;10.30;99.90;;;9.44;91.21;102049.13;4218978;28;20039;-73
2020/12/01 03:57:53;;;;;;;19.33;11.65;;;10.30;99.90;;;9.39;91.68;102053.91;4219309;28;20107;-73
2020/12/01 03:59:54;;;;;;;18.33;11.30;;;10.30;99.90;;;9.47;91.68;102055.94;4217962;28;20039;-72
2020/12/01 04:01:55;;;;;;;23.55;12.60;;;10.30;99.90;;;9.49;91.91;102055.84;4218027;28;20529;-72
2020/12/01 04:03:56;;;;;;;21.42;10.88;;;10.30;99.90;;;9.46;91.73;102064.81;4217797;28;20032;-73
2020/12/01 04:05:57;;;;;;;21.15;11.55;;;10.30;99.90;;;9.26;92.65;102065.47;4217873;28;20511;-72
2020/12/01 04:07:58;;;;;;;20.05;12.35;;;10.30;99.90;;;9.32;92.48;102062.38;4218954;28;20388;-72
2020/12/01 04:10:00;;;;;;;22.55;13.02;;;10.20;99.90;;;9.45;91.89;102053.44;4217587;28;20048;-72
2020/12/01 04:12:01;;;;;;;24.65;13.48;;;10.30;99.90;;;9.51;91.39;102053.94;4217527;28;20051;-72
2020/12/01 04:14:02;;;;;;;21.02;13.07;;;10.30;99.90;;;9.48;91.57;102047.09;4217779;28;20036;-73
2020/12/01 04:16:03;;;;;;;22.30;14.00;;;10.30;99.90;;;9.54;91.77;102057.16;4218749;28;20028;-72
2020/12/01 04:18:04;;;;;;;20.00;12.35;;;10.40;99.90;;;9.49;91.86;102047.94;4217778;28;20058;-72
2020/12/01 04:20:06;;;;;;;23.88;12.57;;;10.30;99.90;;;9.24;93.31;102048.97;4217721;28;20095;-72
2020/12/01 04:22:07;;;;;;;20.13;13.07;;;10.30;99.90;;;9.30;92.97;102048.50;4217818;28;20070;-72
2020/12/01 04:24:08;;;;;;;29.73;14.98;;;10.30;99.90;;;9.31;93.12;102039.66;4217522;28;20032;-72
2020/12/01 04:26:09;;;;;;;19.70;12.40;;;10.20;99.90;;;9.38;92.55;102044.31;4217370;28;20024;-72
2020/12/01 04:28:10;;;;;;;20.25;11.98;;;10.30;99.90;;;9.34;92.86;102029.72;4218724;28;20020;-73
2020/12/01 04:30:16;;;;;;;23.75;12.98;;;10.20;99.90;;;9.37;92.59;102029.50;4217359;28;20506;-72
2020/12/01 04:32:16;;;;;;;24.25;13.60;;;10.20;99.90;;;9.45;92.32;102037.66;4217353;28;20111;-72
2020/12/01 04:34:17;;;;;;;24.17;13.02;;;10.20;99.90;;;9.28;92.62;102035.47;4218766;28;20528;-72
2020/12/01 04:36:18;;;;;;;24.83;13.23;;;10.20;99.90;;;9.41;92.67;102040.63;4218690;28;20395;-72
2020/12/01 04:38:19;;;;;;;24.30;14.20;;;10.20;99.90;;;9.39;93.00;102042.53;4217418;28;20028;-72
2020/12/01 04:40:25;;;;;;;29.38;14.02;;;10.30;99.90;;;9.47;92.76;102044.59;4216958;28;20028;-72
2020/12/01 04:42:28;;;;;;;24.55;13.15;;;10.30;99.90;;;9.41;92.76;102046.72;4217499;28;20023;-72
2020/12/01 04:44:57;;;;;;;24.23;14.88;;;10.30;99.90;;;9.30;93.54;102048.50;4217331;28;20051;-72
2020/12/01 04:47:06;;;;;;;21.67;13.10;;;10.20;99.90;;;9.47;93.08;102052.50;4211203;28;20040;-73
2020/12/01 04:49:42;;;;;;;21.88;13.15;;;10.30;99.90;;;9.49;92.55;102035.63;4217357;28;20036;-73
2020/12/01 04:52:14;;;;;;;22.85;12.75;;;10.30;99.90;;;9.60;92.37;102040.06;4215371;28;20537;-73
2020/12/01 04:55:31;;;;;;;18.48;12.77;;;10.30;99.90;;;9.66;91.91;102053.59;4217553;28;20460;-73
2020/12/01 04:57:49;;;;;;;21.80;12.52;;;10.30;99.90;;;9.59;92.57;102047.09;4167103;28;20037;-73
2020/12/01 05:00:11;;;;;;;25.67;13.27;;;10.40;99.90;;;9.45;92.87;102052.59;4167010;28;20041;-73
2020/12/01 05:03:03;;;;;;;25.55;14.52;;;10.40;99.90;;;9.61;92.31;102049.66;4187674;28;20127;-73
2020/12/01 05:08:30;;;;;;;19.50;12.60;;;10.40;99.90;;;9.60;92.75;102046.16;4194655;28;20031;-72
2020/12/01 05:10:34;;;;;;;20.65;12.32;;;10.30;99.90;;;9.66;92.18;102045.69;4217938;28;20113;-72
2020/12/01 05:12:41;;;;;;;20.73;13.38;;;10.30;99.90;;;9.65;92.58;102053.69;4217145;28;20445;-73
2020/12/01 05:14:59;;;;;;;21.58;13.77;;;10.30;99.90;;;9.63;92.22;102051.19;4217266;28;20079;-72
2020/12/01 05:17:55;;;;;;;26.05;13.40;;;10.40;99.90;;;9.77;91.63;102045.69;4218301;28;20059;-73
2020/12/01 05:19:56;;;;;;;19.13;12.43;;;10.40;99.90;;;9.63;92.50;102050.34;4216986;28;20016;-72
2020/12/01 05:21:57;;;;;;;21.52;12.55;;;10.40;99.90;;;9.73;92.10;102060.09;4218374;28;20028;-73
2020/12/01 05:23:58;;;;;;;26.45;13.52;;;10.40;99.90;;;9.75;91.89;102052.88;4217060;28;20085;-73
2020/12/01 05:26:03;;;;;;;23.15;13.85;;;10.40;99.90;;;9.69;92.40;102050.72;4217058;28;20024;-72
2020/12/01 05:28:16;;;;;;;21.25;12.75;;;10.40;99.90;;;9.69;92.62;102052.53;4217104;28;20028;-72
2020/12/01 05:30:21;;;;;;;22.92;13.98;;;10.30;99.90;;;9.80;91.95;102066.53;4200887;28;20035;-72
2020/12/01 05:32:27;;;;;;;;;;;10.40;99.90;;;9.77;92.37;102060.66;4218816;28;20059;-72
2020/12/01 05:34:28;;;;;;;20.73;12.68;;;10.40;99.90;;;9.70;92.06;102057.69;4217194;28;19943;-72
2020/12/01 05:36:38;;;;;;;24.92;13.93;;;10.50;99.90;;;9.58;92.62;102061.25;4218245;28;20028;-72
2020/12/01 05:38:39;;;;;;;24.20;14.20;;;10.40;99.90;;;9.81;91.42;102062.13;4216912;28;20043;-72
2020/12/01 05:40:56;;;;;;;18.58;12.85;;;10.50;99.90;;;9.80;91.65;102058.63;4188530;28;20103;-72
2020/12/01 05:42:58;;;;;;;22.40;12.57;;;10.40;99.90;;;9.85;91.80;102053.03;4218159;28;20148;-73
2020/12/01 05:44:59;;;;;;;20.27;12.55;;;10.50;99.90;;;9.88;91.31;102045.72;4216753;28;20395;-73
2020/12/01 05:47:15;;;;;;;19.45;12.85;;;10.50;99.90;;;9.88;91.28;102056.25;4216909;28;20024;-73
2020/12/01 05:49:35;;;;;;;22.23;12.43;;;10.50;99.90;;;9.91;91.37;102053.38;4201037;28;20119;-73
2020/12/01 05:51:42;;;;;;;21.63;12.45;;;10.50;99.90;;;9.86;91.59;102050.25;4217836;28;20031;-73
2020/12/01 05:53:53;;;;;;;20.90;12.68;;;10.50;99.90;;;9.86;92.30;102052.88;4220178;28;20441;-73
2020/12/01 05:56:20;;;;;;;20.75;11.45;;;10.50;99.90;;;9.86;92.64;102073.97;4220952;28;20027;-72
2020/12/01 05:58:21;;;;;;;17.88;10.57;;;10.40;99.90;;;9.89;91.89;102068.47;4221293;28;20396;-72
2020/12/01 06:00:30;;;;;;;21.13;11.40;;;10.50;99.90;;;9.91;92.00;102061.28;4220051;28;20079;-72
2020/12/01 06:03:04;;;;;;;21.40;11.65;;;10.50;99.90;;;9.99;92.29;102072.06;4203353;28;20032;-73
2020/12/01 06:05:22;;;;;;;17.20;10.52;;;10.50;99.90;;;9.99;91.85;102065.97;4208515;28;20024;-72
2020/12/01 06:07:26;;;;;;;17.30;10.93;;;10.60;99.90;;;9.95;92.36;102065.34;4219863;28;20024;-72
2020/12/01 06:10:08;;;;;;;18.48;10.52;;;10.60;99.90;;;9.96;92.58;102071.47;4219509;28;20048;-73
2020/12/01 06:12:52;;;;;;;16.75;10.80;;;10.60;99.90;;;9.91;94.06;102076.25;4219484;28;20094;-72
2020/12/01 06:15:05;;;;;;;17.80;11.65;;;10.60;99.90;;;9.72;94.98;102061.03;4221063;28;20028;-73
2020/12/01 06:17:47;;;;;;;18.50;11.27;;;10.70;99.90;;;9.85;95.53;102076.75;4219837;28;20510;-73
2020/12/01 06:20:20;;;;;;;20.40;10.65;;;10.60;99.90;;;9.90;95.06;102075.41;4194401;28;20113;-73
2020/12/01 06:22:21;;;;;;;17.73;10.43;;;10.60;99.90;;;9.80;96.27;102076.22;4220779;28;20028;-72
2020/12/01 06:24:41;;;;;;;16.17;10.32;;;10.60;99.90;;;9.79;97.01;102075.41;4220954;28;20039;-72
2020/12/01 06:27:19;;;;;;;12.95;8.73;;;10.60;99.90;;;9.78;97.26;102073.72;4220536;28;20433;-72
2020/12/01 06:30:11;;;;;;;17.80;9.57;;;10.60;99.90;;;9.73;97.48;102077.69;4219694;28;20043;-73
2020/12/01 06:32:34;;;;;;;14.43;8.07;;;10.60;99.90;;;9.75;97.97;102081.88;4219706;28;20031;-72
2020/12/01 06:35:01;;;;;;;20.05;10.45;;;10.50;99.90;;;9.68;98.10;102072.75;4220690;28;20024;-72
2020/12/01 06:37:27;;;;;;;17.70;10.40;;;10.50;99.90;;;9.71;97.95;102066.41;4185836;28;20036;-73
2020/12/01 06:39:57;;;;;;;13.68;9.25;;;10.50;99.90;;;9.76;98.62;102078.28;4220575;28;20035;-73
2020/12/01 06:42:28;;;;;;;22.25;10.60;;;10.40;99.90;;;9.72;97.93;102068.94;4219051;28;20192;-73
2020/12/01 06:44:29;;;;;;;14.82;9.88;;;10.40;99.90;;;9.65;98.46;102065.09;4219335;28;20043;-73
2020/12/01 06:46:48;;;;;;;14.48;9.43;;;10.40;99.90;;;9.67;98.53;102081.63;4219236;28;20032;-72
2020/12/01 06:48:50;;;;;;;20.88;12.38;;;10.30;99.90;;;9.63;98.21;102067.00;4219388;28;20043;-72
2020/12/01 06:51:00;;;;;;;16.02;9.93;;;10.30;99.90;;;9.65;98.39;102080.03;4202163;28;20036;-73
2020/12/01 06:53:05;;;;;;;17.77;11.82;;;10.30;99.90;;;9.59;97.97;102078.72;4219027;28;20039;-73
2020/12/01 06:55:06;;;;;;;18.20;10.45;;;10.20;99.90;;;9.64;97.56;102067.84;4218644;28;20032;-73
2020/12/01 06:57:33;;;;;;;18.88;10.18;;;10.20;99.90;;;9.68;97.12;102072.75;4218949;28;20509;-73
2020/12/01 06:59:45;;;;;;;17.75;10.80;;;10.20;99.90;;;9.63;97.54;102069.63;4220076;28;20093;-73
2020/12/01 07:01:46;;;;;;;14.65;10.20;;;10.10;99.90;;;9.65;97.52;102074.78;4220199;28;20038;-73
2020/12/01 07:03:58;;;;;;;18.63;10.57;;;10.10;99.90;;;9.55;97.75;102063.28;4216654;28;20024;-73
2020/12/01 07:06:40;;;;;;;14.13;9.85;;;10.10;99.90;;;9.56;96.81;102064.97;4218987;28;20165;-73
2020/12/01 07:08:41;;;;;;;18.52;9.80;;;10.10;99.90;;;9.63;96.02;102067.00;4218930;28;20056;-73
2020/12/01 07:10:42;;;;;;;17.48;9.43;;;10.10;99.90;;;9.60;96.52;102077.78;4218216;28;20118;-73
2020/12/01 07:13:32;;;;;;;13.60;8.25;;;10.10;99.90;;;9.62;95.94;102067.94;4218909;28;20066;-73
2020/12/01 07:15:47;;;;;;;16.65;7.90;;;10.10;99.90;;;9.53;96.44;102073.91;4218911;28;20020;-73
2020/12/01 07:18:10;;;;;;;21.20;9.07;;;10.10;99.90;;;9.57;96.88;102071.91;4218722;28;20047;-73
2020/12/01 07:20:35;;;;;;;15.65;8.60;;;10.10;99.90;;;9.50;97.05;102076.78;4218536;28;20093;-73
2020/12/01 07:23:16;;;;;;;13.57;8.00;;;10.00;99.90;;;9.51;96.93;102089.00;4219994;28;20110;-73
2020/12/01 07:25:58;;;;;;;12.15;7.53;;;10.00;99.90;;;9.52;97.11;102089.84;4172822;28;20029;-73
2020/12/01 07:28:05;;;;;;;11.52;7.20;;;10.00;99.90;;;9.45;97.07;102094.75;4184651;28;20044;-72
2020/12/01 07:30:29;;;;;;;9.20;6.13;;;10.00;99.90;;;9.42;97.22;102087.06;4184471;28;20063;-73
2020/12/01 07:32:57;;;;;;;10.82;6.43;;;10.00;99.90;;;9.47;97.18;102098.09;4218590;28;20055;-73
2020/12/01 07:35:13;;;;;;;11.38;6.38;;;10.00;99.90;;;9.42;97.36;102094.97;4219619;28;20024;-73
2020/12/01 07:38:02;;;;;;;9.27;6.30;;;10.00;99.90;;;9.36;97.31;102096.28;4218575;28;20039;-73
2020/12/01 07:40:07;;;;;;;11.20;5.93;;;10.00;99.90;;;9.41;97.92;102098.56;4184398;28;20031;-73
2020/12/01 07:42:22;;;;;;;11.88;5.97;;;10.00;99.90;;;9.47;97.71;102098.09;4185588;28;20098;-73
2020/12/01 07:44:42;;;;;;;12.93;6.80;;;10.00;99.90;;;9.45;97.21;102094.75;4218206;28;20532;-76
2020/12/01 07:49:02;;;;;;;11.57;5.70;;;10.10;99.90;;;9.36;97.45;102096.28;4202218;28;20056;-75
2020/12/01 07:51:08;;;;;;;10.05;5.95;;;10.00;99.90;;;9.37;98.22;102107.66;4218035;28;20043;-74
2020/12/01 07:53:19;;;;;;;10.52;5.70;;;10.00;99.90;;;9.41;97.74;102112.56;4201176;28;20032;-75
2020/12/01 07:55:34;;;;;;;9.27;5.68;;;10.00;99.90;;;9.47;96.96;102116.53;4217964;28;20027;-75
2020/12/01 07:57:35;;;;;;;;;;;10.00;99.90;;;9.36;97.30;102105.97;4201807;28;20025;-75
2020/12/01 07:59:42;;;;;;;8.98;5.40;;;10.00;99.90;;;9.35;97.13;102115.66;4219157;28;19976;-75
2020/12/01 08:01:44;;;;;;;8.43;5.25;;;10.00;99.90;;;9.41;96.58;102115.19;4218146;28;20102;-75
2020/12/01 08:03:45;;;;;;;9.23;5.63;;;10.00;99.90;;;9.40;97.08;102117.97;4215037;28;20035;-75
2020/12/01 08:05:48;;;;;;;13.00;5.65;;;10.00;99.90;;;9.29;97.61;102104.72;4219058;28;20032;-75
2020/12/01 08:07:55;;;;;;;10.38;4.90;;;10.00;99.90;;;9.35;97.79;102113.03;4217069;28;20138;-77
2020/12/01 08:10:14;;;;;;;8.55;4.65;;;9.90;99.90;;;9.42;97.31;102105.50;4210670;28;20045;-77
2020/12/01 08:12:16;;;;;;;8.23;5.25;;;10.00;99.90;;;9.37;97.24;102103.22;4200336;28;20040;-77
2020/12/01 08:14:18;;;;;;;8.05;5.30;;;10.00;99.90;;;9.41;97.17;102111.72;4200191;28;20024;-76
2020/12/01 08:16:30;;;;;;;7.60;4.55;;;10.00;99.90;;;9.45;97.03;102114.03;4200576;28;20704;-77
2020/12/01 08:18:33;;;;;;;9.60;4.32;;;10.00;99.90;;;9.48;95.63;102117.38;4200802;28;20028;-77
2020/12/01 08:20:34;;;;;;;10.68;4.53;;;10.00;99.90;;;9.51;96.17;102118.00;4200288;28;20032;-76
2020/12/01 08:22:39;;;;;;;10.93;4.55;;;10.10;99.90;;;9.52;96.33;102119.69;4200642;28;20048;-77
2020/12/01 08:24:42;;;;;;;9.68;3.90;;;10.10;99.90;;;9.45;96.77;102115.81;4200550;28;20456;-76
2020/12/01 08:26:46;;;;;;;9.88;4.18;;;10.10;99.90;;;9.60;96.15;102130.47;4200427;28;20036;-76
2020/12/01 08:29:21;;;;;;;7.78;4.00;;;10.10;99.90;;;9.60;94.89;102122.56;4200561;28;20028;-76
2020/12/01 08:31:59;;;;;;;7.95;3.30;;;10.20;99.90;;;9.73;94.28;102136.50;4200420;28;20039;-76
2020/12/01 08:34:39;;;;;;;6.85;3.10;;;10.30;99.90;;;9.71;94.63;102138.38;4200525;28;20051;-77
2020/12/01 08:37:27;;;;;;;9.70;3.60;;;10.30;99.90;;;9.69;94.66;102128.94;4165160;28;20503;-76
2020/12/01 08:40:21;;;;;;;10.70;4.03;;;10.40;99.90;;;9.68;94.73;102128.09;4208928;28;20035;-76
2020/12/01 08:42:49;;;;;;;12.50;4.10;;;10.40;99.90;;;9.66;94.42;102130.00;4200885;28;20040;-74
2020/12/01 08:45:22;;;;;;;12.80;4.43;;;10.40;99.90;;;9.61;94.22;102136.56;4213437;28;20487;-78
2020/12/01 08:47:24;;;;;;;11.45;4.57;;;10.40;99.90;;;9.44;94.74;102135.19;4209811;28;20028;-79
2020/12/01 08:49:41;;;;;;;8.43;3.85;;;10.40;99.90;;;9.48;94.91;102139.28;4216966;28;20035;-76
2020/12/01 08:52:02;;;;;;;14.07;3.42;;;10.40;99.90;;;9.30;92.83;102135.38;4217781;28;20422;-75
2020/12/01 08:54:19;;;;;;;9.35;3.42;;;10.30;99.90;;;9.17;92.62;102148.63;4211606;28;20062;-75
2020/12/01 08:56:41;;;;;;;8.52;3.42;;;10.30;99.90;;;9.26;91.00;102147.09;4199903;28;20491;-76
2020/12/01 08:58:48;;;;;;;8.63;2.80;;;10.30;99.90;;;9.27;88.69;102154.03;4200385;28;20403;-74
2020/12/01 09:01:08;;;;;;;4.18;2.58;;;10.20;99.90;;;9.15;84.52;102150.53;4200082;28;20466;-75